createdAt,value
2018-04-19T00:00:31.468Z,16.53
2018-04-19T00:01:31.474Z,16.5
2018-04-19T00:02:31.471Z,16.52
2018-04-19T00:03:31.485Z,16.52
2018-04-19T00:04:31.464Z,16.49
2018-04-19T00:05:31.472Z,16.39
2018-04-19T00:06:31.465Z,16.43
2018-04-19T00:07:31.476Z,16.42
2018-04-19T00:08:31.478Z,16.42
2018-04-19T00:09:31.465Z,16.42
2018-04-19T00:10:31.622Z,16.39
2018-04-19T00:11:31.457Z,16.36
2018-04-19T00:12:31.463Z,16.36
2018-04-19T00:13:31.460Z,16.29
2018-04-19T00:14:31.473Z,16.29
2018-04-19T00:15:31.498Z,16.31
2018-04-19T00:16:31.459Z,16.31
2018-04-19T00:17:31.473Z,16.29
2018-04-19T00:18:31.493Z,16.29
2018-04-19T00:19:31.454Z,16.29
2018-04-19T00:20:31.478Z,16.26
2018-04-19T00:21:31.509Z,16.26
2018-04-19T00:22:31.575Z,16.22
2018-04-19T00:23:31.489Z,16.19
2018-04-19T00:24:31.464Z,16.21
2018-04-19T00:25:31.459Z,16.19
2018-04-19T00:26:31.461Z,16.15
2018-04-19T00:27:31.454Z,16.11
2018-04-19T00:28:31.466Z,16.08
2018-04-19T00:29:31.486Z,16.08
2018-04-19T00:30:31.449Z,16.02
2018-04-19T00:31:31.470Z,15.91
2018-04-19T00:32:31.477Z,15.87
2018-04-19T00:33:31.475Z,15.85
2018-04-19T00:34:31.532Z,15.87
2018-04-19T00:35:31.470Z,15.76
2018-04-19T00:36:31.466Z,15.77
2018-04-19T00:37:31.460Z,15.77
2018-04-19T00:38:31.527Z,15.78
2018-04-19T00:39:31.453Z,15.74
2018-04-19T00:40:31.548Z,15.73
2018-04-19T00:41:31.454Z,15.76
2018-04-19T00:42:31.453Z,15.71
2018-04-19T00:43:31.464Z,15.73
2018-04-19T00:44:31.451Z,15.71
2018-04-19T00:45:31.457Z,15.69
2018-04-19T00:46:31.541Z,15.71
2018-04-19T00:47:31.453Z,15.71
2018-04-19T00:48:31.474Z,15.71
2018-04-19T00:49:31.483Z,15.7
2018-04-19T00:50:31.448Z,15.67
2018-04-19T00:51:31.467Z,15.67
2018-04-19T00:52:31.449Z,15.66
2018-04-19T00:53:31.448Z,15.64
2018-04-19T00:54:31.447Z,15.66
2018-04-19T00:55:31.444Z,15.63
2018-04-19T00:56:31.473Z,15.63
2018-04-19T00:57:31.444Z,15.6
2018-04-19T00:58:31.486Z,15.57
2018-04-19T00:59:31.457Z,15.56
2018-04-19T01:00:31.456Z,15.53
2018-04-19T01:01:31.489Z,15.5
2018-04-19T01:02:31.494Z,15.52
2018-04-19T01:03:31.446Z,15.49
2018-04-19T01:04:31.457Z,15.5
2018-04-19T01:05:31.438Z,15.52
2018-04-19T01:06:31.458Z,15.47
2018-04-19T01:07:31.445Z,15.45
2018-04-19T01:08:31.455Z,15.46
2018-04-19T01:09:31.461Z,15.42
2018-04-19T01:10:31.438Z,15.41
2018-04-19T01:11:31.479Z,15.42
2018-04-19T01:12:31.443Z,15.38
2018-04-19T01:13:31.452Z,15.38
2018-04-19T01:14:31.465Z,15.35
2018-04-19T01:15:31.441Z,15.34
2018-04-19T01:16:31.452Z,15.35
2018-04-19T01:17:31.432Z,15.35
2018-04-19T01:18:31.437Z,15.31
2018-04-19T01:19:31.447Z,15.28
2018-04-19T01:20:31.433Z,15.17
2018-04-19T01:21:31.482Z,15.19
2018-04-19T01:22:31.430Z,15.22
2018-04-19T01:23:31.437Z,15.21
2018-04-19T01:24:31.450Z,15.22
2018-04-19T01:25:31.420Z,15.18
2018-04-19T01:26:31.447Z,15.21
2018-04-19T01:27:31.421Z,15.15
2018-04-19T01:28:31.749Z,15.17
2018-04-19T01:29:31.458Z,15.18
2018-04-19T01:30:31.431Z,15.12
2018-04-19T01:31:31.509Z,15.12
2018-04-19T01:32:31.513Z,15.11
2018-04-19T01:33:31.435Z,15.12
2018-04-19T01:34:31.426Z,15.11
2018-04-19T01:35:31.435Z,15.11
2018-04-19T01:36:31.618Z,15.11
2018-04-19T01:37:31.427Z,15.08
2018-04-19T01:38:31.587Z,15.07
2018-04-19T01:39:31.437Z,15.05
2018-04-19T01:40:31.417Z,15.04
2018-04-19T01:41:31.425Z,15.04
2018-04-19T01:42:31.472Z,15.05
2018-04-19T01:43:31.467Z,14.98
2018-04-19T01:44:31.476Z,14.98
2018-04-19T01:45:31.480Z,14.94
2018-04-19T01:46:31.447Z,14.95
2018-04-19T01:47:31.437Z,14.94
2018-04-19T01:48:31.424Z,14.91
2018-04-19T01:49:31.462Z,14.87
2018-04-19T01:50:31.457Z,14.91
2018-04-19T01:51:31.447Z,14.94
2018-04-19T01:52:31.422Z,14.9
2018-04-19T01:53:31.435Z,14.87
2018-04-19T01:54:31.466Z,14.86
2018-04-19T01:55:31.560Z,14.9
2018-04-19T01:56:31.444Z,14.88
2018-04-19T01:57:31.440Z,14.91
2018-04-19T01:58:31.465Z,14.87
2018-04-19T01:59:31.432Z,14.86
2018-04-19T02:00:31.447Z,14.84
2018-04-19T02:01:31.437Z,14.86
2018-04-19T02:02:31.404Z,14.9
2018-04-19T02:03:31.408Z,14.86
2018-04-19T02:04:31.469Z,14.86
2018-04-19T02:05:31.471Z,14.9
2018-04-19T02:06:31.439Z,14.87
2018-04-19T02:07:31.417Z,14.86
2018-04-19T02:08:31.428Z,14.84
2018-04-19T02:09:31.415Z,14.84
2018-04-19T02:10:31.411Z,14.83
2018-04-19T02:11:31.433Z,14.86
2018-04-19T02:12:31.418Z,14.84
2018-04-19T02:13:31.418Z,14.83
2018-04-19T02:14:31.419Z,14.81
2018-04-19T02:15:31.402Z,14.8
2018-04-19T02:16:31.432Z,14.8
2018-04-19T02:17:31.400Z,14.74
2018-04-19T02:18:31.410Z,14.76
2018-04-19T02:19:31.411Z,14.73
2018-04-19T02:20:31.408Z,14.73
2018-04-19T02:21:31.425Z,14.73
2018-04-19T02:22:31.578Z,14.69
2018-04-19T02:23:31.400Z,14.66
2018-04-19T02:24:31.412Z,14.66
2018-04-19T02:25:31.411Z,14.64
2018-04-19T02:26:31.437Z,14.67
2018-04-19T02:27:31.449Z,14.67
2018-04-19T02:28:31.434Z,14.6
2018-04-19T02:29:31.425Z,14.55
2018-04-19T02:30:31.419Z,14.59
2018-04-19T02:31:31.431Z,14.56
2018-04-19T02:32:31.401Z,14.55
2018-04-19T02:33:31.410Z,14.53
2018-04-19T02:34:31.407Z,14.55
2018-04-19T02:35:31.475Z,14.55
2018-04-19T02:36:31.419Z,14.53
2018-04-19T02:37:31.416Z,14.53
2018-04-19T02:38:31.542Z,14.55
2018-04-19T02:39:31.399Z,14.51
2018-04-19T02:40:31.416Z,14.49
2018-04-19T02:41:31.491Z,14.49
2018-04-19T02:42:31.402Z,14.46
2018-04-19T02:43:31.467Z,14.45
2018-04-19T02:44:31.400Z,14.48
2018-04-19T02:45:31.397Z,14.52
2018-04-19T02:46:31.640Z,14.45
2018-04-19T02:47:31.404Z,14.38
2018-04-19T02:48:31.407Z,14.39
2018-04-19T02:49:31.397Z,14.39
2018-04-19T02:50:31.609Z,14.38
2018-04-19T02:51:31.413Z,14.36
2018-04-19T02:52:31.568Z,14.39
2018-04-19T02:53:31.430Z,14.38
2018-04-19T02:54:31.426Z,14.38
2018-04-19T02:55:31.554Z,14.35
2018-04-19T02:56:31.401Z,14.38
2018-04-19T02:57:31.389Z,14.36
2018-04-19T02:58:31.409Z,14.29
2018-04-19T02:59:31.387Z,14.11
2018-04-19T03:00:31.379Z,14.21
2018-04-19T03:01:31.397Z,14.19
2018-04-19T03:02:31.391Z,14.17
2018-04-19T03:03:31.528Z,14.1
2018-04-19T03:04:31.422Z,14.17
2018-04-19T03:05:31.419Z,14.15
2018-04-19T03:06:31.420Z,14.15
2018-04-19T03:07:31.404Z,14.15
2018-04-19T03:08:31.568Z,14.15
2018-04-19T03:09:31.401Z,14.15
2018-04-19T03:10:31.400Z,14.17
2018-04-19T03:11:31.445Z,14.15
2018-04-19T03:12:31.581Z,14.17
2018-04-19T03:13:31.402Z,14.17
2018-04-19T03:14:31.437Z,14.15
2018-04-19T03:15:31.413Z,14.14
2018-04-19T03:16:31.378Z,14.12
2018-04-19T03:17:31.499Z,14.15
2018-04-19T03:18:31.421Z,14.17
2018-04-19T03:19:31.406Z,14.15
2018-04-19T03:20:31.456Z,14.12
2018-04-19T03:21:31.382Z,14.14
2018-04-19T03:22:31.388Z,14.17
2018-04-19T03:23:31.396Z,14.11
2018-04-19T03:24:31.374Z,14.1
2018-04-19T03:25:31.380Z,14.08
2018-04-19T03:26:31.365Z,14.11
2018-04-19T03:27:31.365Z,14.1
2018-04-19T03:28:31.390Z,14.08
2018-04-19T03:29:31.388Z,14.08
2018-04-19T03:30:31.385Z,14.12
2018-04-19T03:31:31.393Z,14.11
2018-04-19T03:32:31.430Z,14.1
2018-04-19T03:33:31.374Z,14.14
2018-04-19T03:34:31.382Z,14.11
2018-04-19T03:35:31.572Z,14.11
2018-04-19T03:36:31.379Z,14.11
2018-04-19T03:37:31.363Z,14.05
2018-04-19T03:38:31.384Z,14.07
2018-04-19T03:39:31.372Z,14.05
2018-04-19T03:40:31.377Z,14.05
2018-04-19T03:41:31.364Z,14.05
2018-04-19T03:42:31.388Z,13.84
2018-04-19T03:43:31.393Z,13.89
2018-04-19T03:44:31.511Z,13.91
2018-04-19T03:45:31.363Z,13.91
2018-04-19T03:46:31.379Z,13.91
2018-04-19T03:47:31.365Z,13.93
2018-04-19T03:48:31.534Z,13.91
2018-04-19T03:49:31.406Z,13.96
2018-04-19T03:50:31.367Z,14
2018-04-19T03:51:31.371Z,14
2018-04-19T03:52:31.376Z,14.01
2018-04-19T03:53:31.364Z,14.02
2018-04-19T03:54:31.385Z,14.01
2018-04-19T03:55:31.361Z,14.04
2018-04-19T03:56:31.369Z,14.01
2018-04-19T03:57:31.568Z,14.02
2018-04-19T03:58:31.373Z,14.01
2018-04-19T03:59:31.411Z,14.02
2018-04-19T04:00:31.374Z,14.01
2018-04-19T04:01:31.477Z,14
2018-04-19T04:02:31.366Z,14.04
2018-04-19T04:03:31.373Z,14.01
2018-04-19T04:04:31.389Z,14
2018-04-19T04:05:31.360Z,13.97
2018-04-19T04:06:31.364Z,13.98
2018-04-19T04:07:31.345Z,13.97
2018-04-19T04:08:31.496Z,13.96
2018-04-19T04:09:31.412Z,13.97
2018-04-19T04:10:31.360Z,13.96
2018-04-19T04:11:31.355Z,13.93
2018-04-19T04:12:31.361Z,13.96
2018-04-19T04:13:31.483Z,13.96
2018-04-19T04:14:31.382Z,13.96
2018-04-19T04:15:31.362Z,13.97
2018-04-19T04:16:31.644Z,14
2018-04-19T04:17:31.374Z,13.97
2018-04-19T04:18:31.402Z,13.97
2018-04-19T04:19:31.498Z,13.98
2018-04-19T04:20:31.351Z,13.94
2018-04-19T04:21:31.351Z,13.96
2018-04-19T04:22:31.368Z,13.93
2018-04-19T04:23:31.366Z,13.93
2018-04-19T04:24:31.373Z,13.91
2018-04-19T04:25:31.350Z,13.97
2018-04-19T04:26:31.337Z,13.94
2018-04-19T04:27:31.363Z,13.96
2018-04-19T04:28:31.365Z,13.96
2018-04-19T04:29:31.339Z,13.94
2018-04-19T04:30:31.352Z,13.94
2018-04-19T04:31:31.331Z,13.98
2018-04-19T04:32:31.347Z,13.93
2018-04-19T04:33:31.341Z,13.93
2018-04-19T04:34:31.359Z,13.96
2018-04-19T04:35:31.343Z,13.93
2018-04-19T04:36:31.370Z,13.93
2018-04-19T04:37:31.342Z,13.94
2018-04-19T04:38:31.377Z,13.94
2018-04-19T04:39:31.353Z,13.96
2018-04-19T04:40:31.348Z,13.96
2018-04-19T04:41:31.394Z,13.94
2018-04-19T04:42:31.401Z,13.94
2018-04-19T04:43:31.350Z,13.93
2018-04-19T04:44:31.371Z,13.94
2018-04-19T04:45:31.386Z,13.94
2018-04-19T04:46:31.367Z,13.94
2018-04-19T04:47:31.342Z,13.96
2018-04-19T04:48:31.342Z,13.97
2018-04-19T04:49:31.336Z,13.98
2018-04-19T04:50:31.377Z,13.98
2018-04-19T04:51:31.322Z,13.98
2018-04-19T04:52:31.346Z,13.97
2018-04-19T04:53:31.334Z,13.97
2018-04-19T04:54:31.325Z,13.98
2018-04-19T04:55:31.507Z,14
2018-04-19T04:56:31.330Z,14.01
2018-04-19T04:57:31.407Z,14.02
2018-04-19T04:58:31.344Z,14
2018-04-19T04:59:31.363Z,14.02
2018-04-19T05:00:31.329Z,14
2018-04-19T05:01:31.365Z,14.04
2018-04-19T05:02:31.317Z,14.05
2018-04-19T05:03:31.342Z,14.02
2018-04-19T05:04:31.339Z,14.04
2018-04-19T05:05:31.329Z,14.05
2018-04-19T05:06:31.397Z,14.07
2018-04-19T05:07:31.344Z,14.05
2018-04-19T05:08:31.364Z,14.1
2018-04-19T05:09:31.352Z,14.04
2018-04-19T05:10:31.352Z,14.04
2018-04-19T05:11:31.368Z,14.08
2018-04-19T05:12:31.336Z,14.05
2018-04-19T05:13:31.331Z,14.07
2018-04-19T05:14:31.526Z,14.08
2018-04-19T05:15:31.336Z,14.07
2018-04-19T05:16:31.372Z,14.07
2018-04-19T05:17:31.328Z,14.08
2018-04-19T05:18:31.315Z,14.11
2018-04-19T05:19:31.333Z,14.14
2018-04-19T05:20:31.316Z,14.15
2018-04-19T05:21:31.363Z,14.15
2018-04-19T05:22:31.327Z,14.17
2018-04-19T05:23:31.329Z,14.19
2018-04-19T05:24:31.341Z,14.21
2018-04-19T05:25:31.306Z,14.24
2018-04-19T05:26:31.449Z,14.22
2018-04-19T05:27:31.312Z,14.22
2018-04-19T05:28:31.310Z,14.27
2018-04-19T05:29:31.311Z,14.28
2018-04-19T05:30:31.314Z,14.28
2018-04-19T05:31:31.331Z,14.28
2018-04-19T05:32:31.335Z,14.32
2018-04-19T05:33:31.311Z,14.33
2018-04-19T05:34:31.313Z,14.32
2018-04-19T05:35:31.318Z,14.35
2018-04-19T05:36:31.329Z,14.42
2018-04-19T05:37:31.309Z,14.38
2018-04-19T05:38:31.327Z,14.4
2018-04-19T05:39:31.296Z,14.42
2018-04-19T05:40:31.307Z,14.46
2018-04-19T05:41:31.465Z,14.48
2018-04-19T05:42:31.316Z,14.51
2018-04-19T05:43:31.313Z,14.55
2018-04-19T05:44:31.302Z,14.59
2018-04-19T05:45:31.305Z,14.59
2018-04-19T05:46:31.332Z,14.66
2018-04-19T05:47:31.298Z,14.67
2018-04-19T05:48:31.305Z,14.72
2018-04-19T05:49:31.313Z,14.74
2018-04-19T05:50:31.309Z,14.79
2018-04-19T05:51:31.294Z,14.81
2018-04-19T05:52:31.295Z,14.83
2018-04-19T05:53:31.297Z,14.84
2018-04-19T05:54:31.685Z,14.91
2018-04-19T05:55:31.288Z,14.94
2018-04-19T05:56:31.322Z,14.95
2018-04-19T05:57:31.331Z,15
2018-04-19T05:58:31.323Z,15.01
2018-04-19T05:59:31.311Z,15.04
2018-04-19T06:00:31.327Z,15.05
2018-04-19T06:01:31.306Z,15.09
2018-04-19T06:02:31.300Z,15.11
2018-04-19T06:03:31.412Z,15.12
2018-04-19T06:04:31.298Z,15.14
2018-04-19T06:05:31.339Z,15.18
2018-04-19T06:06:31.359Z,15.18
2018-04-19T06:07:31.371Z,15.22
2018-04-19T06:08:31.314Z,15.25
2018-04-19T06:09:31.297Z,15.29
2018-04-19T06:10:31.297Z,15.34
2018-04-19T06:11:31.302Z,15.35
2018-04-19T06:12:31.318Z,15.38
2018-04-19T06:13:31.299Z,15.41
2018-04-19T06:14:31.363Z,15.45
2018-04-19T06:15:31.337Z,15.52
2018-04-19T06:16:31.297Z,15.56
2018-04-19T06:17:31.276Z,15.57
2018-04-19T06:18:31.410Z,15.62
2018-04-19T06:19:31.299Z,15.66
2018-04-19T06:20:31.302Z,15.69
2018-04-19T06:21:31.283Z,15.73
2018-04-19T06:22:31.436Z,15.78
2018-04-19T06:23:31.308Z,15.78
2018-04-19T06:24:31.304Z,15.84
2018-04-19T06:25:31.306Z,15.87
2018-04-19T06:26:31.319Z,15.91
2018-04-19T06:27:31.329Z,15.92
2018-04-19T06:28:31.286Z,15.97
2018-04-19T06:29:31.301Z,16.01
2018-04-19T06:30:31.298Z,16.05
2018-04-19T06:31:31.287Z,16.12
2018-04-19T06:32:31.280Z,16.12
2018-04-19T06:33:31.305Z,16.16
2018-04-19T06:34:31.287Z,16.21
2018-04-19T06:35:31.303Z,16.25
2018-04-19T06:36:31.287Z,16.28
2018-04-19T06:37:31.278Z,16.28
2018-04-19T06:38:31.316Z,16.35
2018-04-19T06:39:31.281Z,16.37
2018-04-19T06:40:31.300Z,16.37
2018-04-19T06:41:31.435Z,16.45
2018-04-19T06:42:31.313Z,16.49
2018-04-19T06:43:31.285Z,16.52
2018-04-19T06:44:31.301Z,16.52
2018-04-19T06:45:31.272Z,16.56
2018-04-19T06:46:31.281Z,16.57
2018-04-19T06:47:31.298Z,16.63
2018-04-19T06:48:31.286Z,16.64
2018-04-19T06:49:31.290Z,16.67
2018-04-19T06:50:31.282Z,16.7
2018-04-19T06:51:31.276Z,16.73
2018-04-19T06:52:31.292Z,16.83
2018-04-19T06:53:31.511Z,16.84
2018-04-19T06:54:31.304Z,16.9
2018-04-19T06:55:31.283Z,16.87
2018-04-19T06:56:31.290Z,16.92
2018-04-19T06:57:31.278Z,17.01
2018-04-19T06:58:31.287Z,17.01
2018-04-19T06:59:31.265Z,17.07
2018-04-19T07:00:31.279Z,17.04
2018-04-19T07:01:31.273Z,17.09
2018-04-19T07:02:31.297Z,17.11
2018-04-19T07:03:31.276Z,17.14
2018-04-19T07:04:31.282Z,17.18
2018-04-19T07:05:31.370Z,17.19
2018-04-19T07:06:31.418Z,17.18
2018-04-19T07:07:31.300Z,17.23
2018-04-19T07:08:31.278Z,17.27
2018-04-19T07:09:31.262Z,17.3
2018-04-19T07:10:31.304Z,17.35
2018-04-19T07:11:31.277Z,17.33
2018-04-19T07:12:31.262Z,17.37
2018-04-19T07:13:31.262Z,17.42
2018-04-19T07:14:31.482Z,17.42
2018-04-19T07:15:31.254Z,17.42
2018-04-19T07:16:31.440Z,17.46
2018-04-19T07:17:31.305Z,17.44
2018-04-19T07:18:31.275Z,17.49
2018-04-19T07:19:31.272Z,17.47
2018-04-19T07:20:31.292Z,17.52
2018-04-19T07:21:31.278Z,17.54
2018-04-19T07:22:31.257Z,17.57
2018-04-19T07:23:31.284Z,17.61
2018-04-19T07:24:31.264Z,17.69
2018-04-19T07:25:31.303Z,17.8
2018-04-19T07:26:31.318Z,17.78
2018-04-19T07:27:31.251Z,17.8
2018-04-19T07:28:31.250Z,17.8
2018-04-19T07:29:31.258Z,17.81
2018-04-19T07:30:31.278Z,17.84
2018-04-19T07:31:31.300Z,17.88
2018-04-19T07:32:31.318Z,17.92
2018-04-19T07:33:31.255Z,17.91
2018-04-19T07:34:31.360Z,17.94
2018-04-19T07:35:31.263Z,17.99
2018-04-19T07:36:31.287Z,18.01
2018-04-19T07:37:31.307Z,18.04
2018-04-19T07:38:31.280Z,18.08
2018-04-19T07:39:31.256Z,18.09
2018-04-19T07:40:31.244Z,18.12
2018-04-19T07:41:31.237Z,18.15
2018-04-19T07:42:31.274Z,18.16
2018-04-19T07:43:31.432Z,18.22
2018-04-19T07:44:31.275Z,18.29
2018-04-19T07:45:31.266Z,18.35
2018-04-19T07:46:31.264Z,18.36
2018-04-19T07:47:31.241Z,18.35
2018-04-19T07:48:31.254Z,18.37
2018-04-19T07:49:31.256Z,18.4
2018-04-19T07:50:31.264Z,18.42
2018-04-19T07:51:31.479Z,18.43
2018-04-19T07:52:31.266Z,18.47
2018-04-19T07:53:31.238Z,18.5
2018-04-19T07:54:31.251Z,18.54
2018-04-19T07:55:31.246Z,18.5
2018-04-19T07:56:31.235Z,18.56
2018-04-19T07:57:31.293Z,18.64
2018-04-19T07:58:31.244Z,18.63
2018-04-19T07:59:31.264Z,18.64
2018-04-19T08:00:31.240Z,18.68
2018-04-19T08:01:31.240Z,18.7
2018-04-19T08:02:31.254Z,18.68
2018-04-19T08:03:31.279Z,18.71
2018-04-19T08:04:31.247Z,18.72
2018-04-19T08:05:31.511Z,18.77
2018-04-19T08:06:31.233Z,18.82
2018-04-19T08:07:31.238Z,18.84
2018-04-19T08:08:31.268Z,18.85
2018-04-19T08:09:31.280Z,18.89
2018-04-19T08:10:31.285Z,18.95
2018-04-19T08:11:31.440Z,18.98
2018-04-19T08:12:31.232Z,19.02
2018-04-19T08:13:31.241Z,18.99
2018-04-19T08:14:31.257Z,19.08
2018-04-19T08:15:31.232Z,19.06
2018-04-19T08:16:31.253Z,19.1
2018-04-19T08:17:31.241Z,19.12
2018-04-19T08:18:31.224Z,19.15
2018-04-19T08:19:31.252Z,19.17
2018-04-19T08:20:31.242Z,19.22
2018-04-19T08:21:31.224Z,19.27
2018-04-19T08:22:31.226Z,19.36
2018-04-19T08:23:31.281Z,19.46
2018-04-19T08:24:31.379Z,19.43
2018-04-19T08:25:31.232Z,19.54
2018-04-19T08:26:31.245Z,19.57
2018-04-19T08:27:31.234Z,19.61
2018-04-19T08:28:31.221Z,19.65
2018-04-19T08:29:31.275Z,19.7
2018-04-19T08:30:31.226Z,19.71
2018-04-19T08:31:31.227Z,19.74
2018-04-19T08:32:31.271Z,19.84
2018-04-19T08:33:31.279Z,19.86
2018-04-19T08:34:31.218Z,19.92
2018-04-19T08:35:31.248Z,19.92
2018-04-19T08:36:31.337Z,19.98
2018-04-19T08:37:31.248Z,20.01
2018-04-19T08:38:31.250Z,20.05
2018-04-19T08:39:31.232Z,20.08
2018-04-19T08:40:31.255Z,20.06
2018-04-19T08:41:31.232Z,20.12
2018-04-19T08:42:31.272Z,20.19
2018-04-19T08:43:31.302Z,20.23
2018-04-19T08:44:31.284Z,20.29
2018-04-19T08:45:31.263Z,20.32
2018-04-19T08:46:31.280Z,20.33
2018-04-19T08:47:31.399Z,20.36
2018-04-19T08:48:31.240Z,20.46
2018-04-19T08:49:31.211Z,20.48
2018-04-19T08:50:31.224Z,20.52
2018-04-19T08:51:31.233Z,20.51
2018-04-19T08:52:31.250Z,20.57
2018-04-19T08:53:31.269Z,20.58
2018-04-19T08:54:31.228Z,20.62
2018-04-19T08:55:31.229Z,20.68
2018-04-19T08:56:31.229Z,20.74
2018-04-19T08:57:31.252Z,20.79
2018-04-19T08:58:31.386Z,20.84
2018-04-19T08:59:31.233Z,20.87
2018-04-19T09:00:31.216Z,20.94
2018-04-19T09:01:31.221Z,20.98
2018-04-19T09:02:31.225Z,21.01
2018-04-19T09:03:31.273Z,21.02
2018-04-19T09:04:31.227Z,21.06
2018-04-19T09:05:31.214Z,21.1
2018-04-19T09:06:31.225Z,21.12
2018-04-19T09:07:31.204Z,21.19
2018-04-19T09:08:31.267Z,21.19
2018-04-19T09:09:31.212Z,21.17
2018-04-19T09:10:31.208Z,21.23
2018-04-19T09:11:31.258Z,21.27
2018-04-19T09:12:31.236Z,21.24
2018-04-19T09:13:31.379Z,21.26
2018-04-19T09:14:31.211Z,21.29
2018-04-19T09:15:31.201Z,21.32
2018-04-19T09:16:31.330Z,21.36
2018-04-19T09:17:31.234Z,21.37
2018-04-19T09:18:31.207Z,21.46
2018-04-19T09:19:31.354Z,21.47
2018-04-19T09:20:31.210Z,21.46
2018-04-19T09:21:31.230Z,21.47
2018-04-19T09:22:31.217Z,21.54
2018-04-19T09:23:31.196Z,21.57
2018-04-19T09:24:31.215Z,21.6
2018-04-19T09:25:31.298Z,21.68
2018-04-19T09:26:31.199Z,21.67
2018-04-19T09:27:31.274Z,21.68
2018-04-19T09:28:31.214Z,21.75
2018-04-19T09:29:31.321Z,21.75
2018-04-19T09:30:31.484Z,21.79
2018-04-19T09:31:31.206Z,21.84
2018-04-19T09:32:31.200Z,21.88
2018-04-19T09:33:31.209Z,21.89
2018-04-19T09:34:31.206Z,21.88
2018-04-19T09:35:31.236Z,21.95
2018-04-19T09:36:31.199Z,21.95
2018-04-19T09:37:31.214Z,21.96
2018-04-19T09:38:31.258Z,21.98
2018-04-19T09:39:31.339Z,22.01
2018-04-19T09:40:31.216Z,22.06
2018-04-19T09:41:31.209Z,22.03
2018-04-19T09:42:31.195Z,22.09
2018-04-19T09:43:31.252Z,22.15
2018-04-19T09:44:31.182Z,22.15
2018-04-19T09:45:31.192Z,22.2
2018-04-19T09:46:31.322Z,22.23
2018-04-19T09:47:31.186Z,22.27
2018-04-19T09:48:31.339Z,22.34
2018-04-19T09:49:31.252Z,22.31
2018-04-19T09:50:31.199Z,22.34
2018-04-19T09:51:31.226Z,22.41
2018-04-19T09:52:31.190Z,22.41
2018-04-19T09:53:31.185Z,22.43
2018-04-19T09:54:31.255Z,22.46
2018-04-19T09:55:31.187Z,22.51
2018-04-19T09:56:31.204Z,22.48
2018-04-19T09:57:31.177Z,22.51
2018-04-19T09:58:31.327Z,22.56
2018-04-19T09:59:31.218Z,22.54
2018-04-19T10:00:31.212Z,22.6
2018-04-19T10:01:31.180Z,22.6
2018-04-19T10:02:31.211Z,22.65
2018-04-19T10:03:31.186Z,22.68
2018-04-19T10:04:31.186Z,22.67
2018-04-19T10:05:31.173Z,22.71
2018-04-19T10:06:31.186Z,22.72
2018-04-19T10:07:31.232Z,22.75
2018-04-19T10:08:31.222Z,22.79
2018-04-19T10:09:31.178Z,22.79
2018-04-19T10:10:31.306Z,22.82
2018-04-19T10:11:31.177Z,22.89
2018-04-19T10:12:31.195Z,22.95
2018-04-19T10:13:31.187Z,22.98
2018-04-19T10:14:31.185Z,22.99
2018-04-19T10:15:31.181Z,23.02
2018-04-19T10:16:31.179Z,23.03
2018-04-19T10:17:31.245Z,23.07
2018-04-19T10:18:31.194Z,23.11
2018-04-19T10:19:31.165Z,23.13
2018-04-19T10:20:31.200Z,23.15
2018-04-19T10:21:31.981Z,23.18
2018-04-19T10:22:31.206Z,23.25
2018-04-19T10:23:31.284Z,23.29
2018-04-19T10:24:31.192Z,23.26
2018-04-19T10:25:31.186Z,23.26
2018-04-19T10:26:31.168Z,23.32
2018-04-19T10:27:31.308Z,23.4
2018-04-19T10:28:31.215Z,23.41
2018-04-19T10:29:31.171Z,23.46
2018-04-19T10:30:31.169Z,23.48
2018-04-19T10:31:31.931Z,23.53
2018-04-19T10:32:31.196Z,23.56
2018-04-19T10:33:31.183Z,23.58
2018-04-19T10:34:31.207Z,23.57
2018-04-19T10:35:31.186Z,23.56
2018-04-19T10:36:31.163Z,23.6
2018-04-19T10:37:31.195Z,23.64
2018-04-19T10:38:31.216Z,23.57
2018-04-19T10:39:31.191Z,23.6
2018-04-19T10:40:31.217Z,23.64
2018-04-19T10:41:31.179Z,23.68
2018-04-19T10:42:31.316Z,23.73
2018-04-19T10:43:31.209Z,23.73
2018-04-19T10:44:31.171Z,23.74
2018-04-19T10:45:31.219Z,23.67
2018-04-19T10:46:31.175Z,23.64
2018-04-19T10:47:31.383Z,23.62
2018-04-19T10:48:31.161Z,23.62
2018-04-19T10:49:31.169Z,23.61
2018-04-19T10:50:31.186Z,23.62
2018-04-19T10:51:31.200Z,23.65
2018-04-19T10:52:31.268Z,23.68
2018-04-19T10:53:31.166Z,23.68
2018-04-19T10:54:31.318Z,23.73
2018-04-19T10:55:31.154Z,23.73
2018-04-19T10:56:31.170Z,23.73
2018-04-19T10:57:31.953Z,23.73
2018-04-19T10:58:31.167Z,23.81
2018-04-19T10:59:31.172Z,23.81
2018-04-19T11:00:31.236Z,23.8
2018-04-19T11:01:31.158Z,23.81
2018-04-19T11:02:31.366Z,23.81
2018-04-19T11:03:31.187Z,23.82
2018-04-19T11:04:31.169Z,23.87
2018-04-19T11:05:31.167Z,23.75
2018-04-19T11:06:31.170Z,23.81
2018-04-19T11:07:31.282Z,23.84
2018-04-19T11:08:31.259Z,23.85
2018-04-19T11:09:31.159Z,23.85
2018-04-19T11:10:31.203Z,23.87
2018-04-19T11:11:31.151Z,23.91
2018-04-19T11:12:31.180Z,23.92
2018-04-19T11:13:31.236Z,23.92
2018-04-19T11:14:31.917Z,23.96
2018-04-19T11:15:32.209Z,24.02
2018-04-19T11:16:31.162Z,24.06
2018-04-19T11:17:32.051Z,24.09
2018-04-19T11:18:35.629Z,24.09
2018-04-19T11:19:31.234Z,24.13
2018-04-19T11:20:37.273Z,24.15
2018-04-19T11:21:32.459Z,24.19
2018-04-19T11:22:31.605Z,24.26
2018-04-19T11:23:33.424Z,24.3
2018-04-19T11:24:31.479Z,24.36
2018-04-19T11:25:32.064Z,24.42
2018-04-19T11:26:31.415Z,24.5
2018-04-19T11:27:31.481Z,24.48
2018-04-19T11:28:33.002Z,24.54
2018-04-19T11:29:33.366Z,24.6
2018-04-19T11:30:31.950Z,24.64
2018-04-19T11:31:31.537Z,24.63
2018-04-19T11:32:32.689Z,24.64
2018-04-19T11:33:33.712Z,24.67
2018-04-19T11:34:37.377Z,24.72
2018-04-19T11:35:33.851Z,24.71
2018-04-19T11:36:39.630Z,24.77
2018-04-19T11:37:32.234Z,24.77
2018-04-19T11:38:33.796Z,24.68
2018-04-19T11:39:35.661Z,24.65
2018-04-19T11:40:31.187Z,24.64
2018-04-19T11:41:34.685Z,24.67
2018-04-19T11:42:32.618Z,24.75
2018-04-19T11:43:31.861Z,24.77
2018-04-19T11:44:35.724Z,24.81
2018-04-19T11:45:33.574Z,24.91
2018-04-19T11:46:35.667Z,24.98
2018-04-19T11:47:32.301Z,25.02
2018-04-19T11:48:32.856Z,25.03
2018-04-19T11:49:32.133Z,25.17
2018-04-19T11:50:32.788Z,25.25
2018-04-19T11:51:32.878Z,25.27
2018-04-19T11:52:32.666Z,25.36
2018-04-19T11:53:32.374Z,25.41
2018-04-19T11:54:32.427Z,25.33
2018-04-19T11:55:32.750Z,25.33
2018-04-19T11:56:33.601Z,25.37
2018-04-19T11:57:32.141Z,25.38
2018-04-19T11:58:32.088Z,25.44
2018-04-19T11:59:31.169Z,25.48
2018-04-19T12:00:33.658Z,25.6
2018-04-19T12:01:32.174Z,25.65
2018-04-19T12:02:31.511Z,25.72
2018-04-19T12:03:33.430Z,25.77
2018-04-19T12:04:33.059Z,25.75
2018-04-19T12:05:31.681Z,25.8
2018-04-19T12:06:32.000Z,25.87
2018-04-19T12:07:31.305Z,25.88
2018-04-19T12:08:31.299Z,25.82
2018-04-19T12:09:31.487Z,25.87
2018-04-19T12:10:36.319Z,25.87
2018-04-19T12:11:34.120Z,25.99
2018-04-19T12:12:31.397Z,26.03
2018-04-19T12:13:31.657Z,26.08
2018-04-19T12:14:31.200Z,26.1
2018-04-19T12:15:34.618Z,25.89
2018-04-19T12:16:33.753Z,25.77
2018-04-19T12:17:31.445Z,25.74
2018-04-19T12:18:31.433Z,25.77
2018-04-19T12:19:32.019Z,25.92
2018-04-19T12:20:40.143Z,25.95
2018-04-19T12:21:36.301Z,26
2018-04-19T12:22:33.311Z,26.09
2018-04-19T12:23:32.542Z,26.13
2018-04-19T12:24:31.221Z,26.23
2018-04-19T12:25:31.163Z,26.32
2018-04-19T12:26:31.180Z,26.34
2018-04-19T12:27:31.127Z,26.43
2018-04-19T12:28:31.135Z,26.6
2018-04-19T12:29:31.157Z,26.64
2018-04-19T12:30:31.170Z,26.64
2018-04-19T12:31:31.138Z,26.62
2018-04-19T12:32:31.128Z,26.65
2018-04-19T12:33:31.161Z,26.75
2018-04-19T12:34:31.131Z,26.74
2018-04-19T12:35:31.147Z,26.81
2018-04-19T12:36:31.134Z,26.84
2018-04-19T12:37:31.424Z,26.87
2018-04-19T12:38:31.139Z,26.92
2018-04-19T12:39:31.137Z,26.91
2018-04-19T12:40:32.741Z,26.88
2018-04-19T12:41:31.143Z,26.96
2018-04-19T12:42:31.322Z,26.96
2018-04-19T12:43:31.302Z,27.01
2018-04-19T12:44:31.138Z,27.05
2018-04-19T12:45:31.131Z,27.06
2018-04-19T12:46:31.127Z,27.12
2018-04-19T12:47:31.135Z,27.06
2018-04-19T12:48:31.142Z,26.98
2018-04-19T12:49:31.147Z,26.99
2018-04-19T12:50:31.157Z,27.03
2018-04-19T12:51:31.272Z,27.09
2018-04-19T12:52:31.122Z,27.16
2018-04-19T12:53:31.154Z,27.24
2018-04-19T12:54:31.145Z,27.24
2018-04-19T12:55:31.275Z,27.29